TNCA Airport Information

Runway Information
Runway 11 Length 9000 ft width 148 ft
Elevation 12 ft Threshold 0 ft Heading 104
Runway 29 Length 9000 ft Width 148 ft
Elevation 62 ft Threshold 0 ft Heading 284
Airport Frequencies
Type ATIS Name ATIS Frequency 132.1 MHZ
Type GND Name GND Frequency 121.9 MHZ
Type MISC Name SEARCH AND Frequency 123.1 MHZ
Type RMP Name BEATRIX AP Frequency 121.6 MHZ
Type TWR Name BEATRIX TW Frequency 120.9 MHZ
Airport Navaids
Type VOR-DME Name Aruba Frequency 112500 KHZ
Type VOR-DME Name Reina Beatrix Frequency 113800 KHZ
Airport Weather Information & NOTAM
ADDS - METARS form results

(0503 UTC 20 January 2022)
Data provider http://aviationweather.gov/metar/data/
 
Forecast for: TNCA (QUEEN BEATRIX , AW)
Text: TAF TNCA 192315Z 2000/2024 08019KT 9999 SCT018
Forecast period: 0000 UTC 20 January 2022 to 0000 UTC 21 January 2022
Forecast type: FROM: standard forecast or significant change
Winds: from the E (80 degrees) at 22 MPH (19 knots; 9.8 m/s)
Visibility: 6 or more miles (10+ km)
Ceiling: at least 12,000 feet AGL
Clouds: scattered clouds at 1800 feet AGL
Weather: no significant weather forecast for this period
Text: PROB30
Forecast period: 0000 to 1800 UTC 20 January 2022
Forecast type: TEMPORARY: The following changes expected for less than half the time period
Visibility: 3 miles (5 km)
Ceiling: 1400 feet AGL
Clouds: broken clouds at 1400 feet AGL
Weather: SHRA  (rain showers)